»·PEaware :: BTQ814 KPHX-KSOW

BTQ814 :: KPHX-KSOW

FLIGHT INFORMATION

Flight Status: Arrived
Operator: Unknown
More flights by this operator :: More flights under this callsign
Pilot: Daniel O. (11975)
Aircraft: PILATUS PC-12 EAGLE
(PC12)
More flights by this aircraft type
Origin: KPHX Phoenix Sky Harbor Intl
United States
Destination: KSOW Show Low Mun
United States
More flights between these airports :: More routes between these airports
Route: FORPE1 LALUZ
File this flight plan on PilotEdge
Remarks:
Altitude:
(Current/Filed)
17,000ft
Speed:
(Current/Filed)
200kts
Departed: 25-Mar-20 11:52 PM
Arrived: 26-Mar-20 12:32 AM
Distance/Time
Traveled:
112nm/0:39
Distance/Time
To Go:
Arrived

Flight Plot

Page will automatically refresh every two minutes.

Flight plan parsing failed; only flown route is shown


Map Options




Map Legend


Flown Route
Filed Route
Departure Airport
Arrival Airport
Navaid (VOR, NDB)
Fix

Horizontal Profiles

Position Reports

Time Latitude Longitude Heading Altitude Ground
Speed
25-Mar-20 23:40 33.431040 -111.993644 270 1126ft 0kts
25-Mar-20 23:41 33.431040 -111.993644 270 1126ft 0kts
25-Mar-20 23:42 33.431040 -111.993644 270 1126ft 0kts
25-Mar-20 23:43 33.431040 -111.993644 270 1126ft 0kts
25-Mar-20 23:44 33.431040 -111.993644 270 1126ft 0kts
25-Mar-20 23:45 33.431040 -111.993644 270 1126ft 0kts
25-Mar-20 23:46 33.431040 -111.993644 270 1126ft 0kts
25-Mar-20 23:47 33.431040 -111.993644 269 1126ft 0kts
25-Mar-20 23:48 33.431040 -111.993644 269 1126ft 0kts
25-Mar-20 23:49 33.431040 -111.993644 269 1126ft 0kts
25-Mar-20 23:50 33.431040 -111.993644 269 1126ft 0kts
25-Mar-20 23:51 33.431234 -112.010150 269 1608ft 116kts
25-Mar-20 23:52 33.433652 -112.054150 281 3634ft 154kts
25-Mar-20 23:53 33.453818 -112.102466 308 5360ft 187kts
25-Mar-20 23:54 33.486436 -112.143296 307 7643ft 168kts
25-Mar-20 23:55 33.519804 -112.184001 308 9408ft 174kts
25-Mar-20 23:56 33.571536 -112.183135 5 10973ft 201kts
25-Mar-20 23:57 33.624897 -112.157724 39 12300ft 222kts
25-Mar-20 23:58 33.669465 -112.102709 44 13550ft 237kts
25-Mar-20 23:59 33.716083 -112.043153 43 15266ft 252kts
26-Mar-20 00:00 33.746963 -111.969871 104 16776ft 249kts
26-Mar-20 00:01 33.739340 -111.877994 108 16916ft 302kts
26-Mar-20 00:02 33.748550 -111.773519 65 16919ft 344kts
26-Mar-20 00:03 33.789626 -111.669090 68 16915ft 345kts
26-Mar-20 00:04 33.828983 -111.563056 68 16917ft 345kts
26-Mar-20 00:05 33.868162 -111.457209 68 16919ft 344kts
26-Mar-20 00:06 33.907117 -111.351526 68 16921ft 344kts
26-Mar-20 00:07 33.945666 -111.246838 68 16908ft 342kts
26-Mar-20 00:08 33.984059 -111.142099 68 16910ft 341kts
26-Mar-20 00:09 34.022487 -111.036949 68 16938ft 341kts
26-Mar-20 00:10 34.060677 -110.932112 68 16980ft 341kts
26-Mar-20 00:11 34.098780 -110.827134 68 17007ft 342kts
26-Mar-20 00:12 34.136537 -110.722807 68 16998ft 340kts
26-Mar-20 00:13 34.174004 -110.618931 68 17000ft 340kts
26-Mar-20 00:14 34.211751 -110.513843 68 17002ft 340kts
26-Mar-20 00:15 34.249341 -110.408957 68 17004ft 339kts
26-Mar-20 00:16 34.287127 -110.303194 69 16128ft 344kts
26-Mar-20 00:18 34.318933 -110.213881 69 15326ft 341kts
26-Mar-20 00:19 34.356029 -110.109338 69 14408ft 336kts
26-Mar-20 00:20 34.385646 -110.004480 99 13511ft 318kts
26-Mar-20 00:21 34.357755 -109.908274 119 12564ft 299kts
26-Mar-20 00:22 34.328332 -109.814636 119 11725ft 294kts
26-Mar-20 00:23 34.325152 -109.717801 76 10912ft 305kts
26-Mar-20 00:24 34.368270 -109.645576 352 10073ft 259kts
26-Mar-20 00:25 34.377759 -109.697147 223 9710ft 196kts
26-Mar-20 00:26 34.339074 -109.742567 222 9707ft 193kts
26-Mar-20 00:27 34.308078 -109.794287 254 9552ft 204kts
26-Mar-20 00:28 34.295565 -109.865152 253 8617ft 209kts
26-Mar-20 00:29 34.285489 -109.914283 247 7789ft 119kts
26-Mar-20 00:30 34.278764 -109.946495 246 7246ft 97kts
26-Mar-20 00:31 34.272189 -109.978322 246 6714ft 96kts
26-Mar-20 00:32 34.266707 -110.004706 254 6411ft 33kts
26-Mar-20 00:33 34.264954 -110.006016 257 6413ft 8kts
26-Mar-20 00:34 34.264459 -110.007333 172 6412ft 0kts
26-Mar-20 00:34 34.264459 -110.007333 172 6412ft 0kts
26-Mar-20 00:36 34.264459 -110.007333 172 6412ft 0kts

Navigation Log

Ident Type
Flight plan parsing failed, navigation log unavailable